createdAt,value
2022-09-29T00:01:19.509Z,1.40
2022-09-29T00:03:47.889Z,1.50
2022-09-29T00:06:18.738Z,1.70
2022-09-29T00:08:47.001Z,1.50
2022-09-29T00:11:18.657Z,1.90
2022-09-29T00:13:47.921Z,1.60
2022-09-29T00:16:16.639Z,1.60
2022-09-29T00:18:45.020Z,2.10
2022-09-29T00:21:17.480Z,1.70
2022-09-29T00:23:46.405Z,1.80
2022-09-29T00:26:23.574Z,2.00
2022-09-29T00:28:56.979Z,1.60
2022-09-29T00:31:28.105Z,2.20
2022-09-29T00:33:56.918Z,1.80
2022-09-29T00:36:30.441Z,2.00
2022-09-29T00:38:59.167Z,1.90
2022-09-29T00:41:31.455Z,1.70
2022-09-29T00:44:14.850Z,2.00
2022-09-29T00:46:55.246Z,1.60
2022-09-29T00:49:32.024Z,1.70
2022-09-29T00:52:23.543Z,2.40
2022-09-29T00:55:18.544Z,1.70
2022-09-29T00:58:03.818Z,2.00
2022-09-29T01:00:32.444Z,1.90
2022-09-29T01:03:05.478Z,2.40
2022-09-29T01:05:37.762Z,2.10
2022-09-29T01:08:24.982Z,2.10
2022-09-29T01:10:54.078Z,2.20
2022-09-29T01:13:22.557Z,1.90
2022-09-29T01:15:50.677Z,2.10
2022-09-29T01:18:19.249Z,2.00
2022-09-29T01:21:14.523Z,1.90
2022-09-29T01:23:54.577Z,1.70
2022-09-29T01:26:48.963Z,2.00
2022-09-29T01:29:35.570Z,1.90
2022-09-29T01:32:32.722Z,1.80
2022-09-29T01:35:07.451Z,2.20
2022-09-29T01:38:31.739Z,2.30
2022-09-29T01:41:18.447Z,1.90
2022-09-29T01:43:54.198Z,2.00
2022-09-29T01:46:32.376Z,2.10
2022-09-29T01:49:03.248Z,2.30
2022-09-29T01:51:40.531Z,1.90
2022-09-29T01:54:21.198Z,2.10
2022-09-29T01:56:59.523Z,2.50
2022-09-29T01:59:45.909Z,1.70
2022-09-29T02:02:21.599Z,2.20
2022-09-29T02:05:00.286Z,2.40
2022-09-29T02:07:42.073Z,2.70
2022-09-29T02:10:23.252Z,2.60
2022-09-29T02:12:54.292Z,2.30
2022-09-29T02:15:30.232Z,2.30
2022-09-29T02:18:03.441Z,2.50
2022-09-29T02:20:31.722Z,2.90
2022-09-29T02:22:59.807Z,2.70
2022-09-29T02:25:27.827Z,2.80
2022-09-29T02:27:56.238Z,2.20
2022-09-29T02:30:24.310Z,2.80
2022-09-29T02:32:52.380Z,2.50
2022-09-29T02:35:20.745Z,2.90
2022-09-29T02:38:06.853Z,3.10
2022-09-29T02:40:44.214Z,2.30
2022-09-29T02:43:49.796Z,2.40
2022-09-29T02:46:17.764Z,2.50
2022-09-29T02:49:07.689Z,2.40
2022-09-29T02:51:59.398Z,2.60
2022-09-29T02:54:31.230Z,2.70
2022-09-29T03:00:06.387Z,2.20
2022-09-29T03:02:35.302Z,2.40
2022-09-29T03:05:10.210Z,3.00
2022-09-29T03:07:39.143Z,3.00
2022-09-29T03:10:09.380Z,3.10
2022-09-29T03:12:37.934Z,3.40
2022-09-29T03:15:07.411Z,3.70
2022-09-29T03:17:36.182Z,3.60
2022-09-29T03:20:05.536Z,3.60
2022-09-29T03:22:33.979Z,4.30
2022-09-29T03:25:03.997Z,4.30
2022-09-29T03:27:33.444Z,4.10
2022-09-29T03:30:01.573Z,3.80
2022-09-29T03:32:30.670Z,3.70
2022-09-29T03:34:58.842Z,3.30
2022-09-29T03:37:27.117Z,3.30
2022-09-29T03:39:55.191Z,3.10
2022-09-29T03:42:24.592Z,3.40
2022-09-29T03:44:52.664Z,3.40
2022-09-29T03:47:20.735Z,3.10
2022-09-29T03:49:48.808Z,2.60
2022-09-29T03:52:17.466Z,2.90
2022-09-29T03:54:45.461Z,3.00
2022-09-29T03:57:14.044Z,3.10
2022-09-29T03:59:45.390Z,2.60
2022-09-29T04:04:42.763Z,2.70
2022-09-29T04:07:11.143Z,2.60
2022-09-29T04:09:39.213Z,2.80
2022-09-29T04:12:07.390Z,3.10
2022-09-29T04:14:35.459Z,2.60
2022-09-29T04:17:03.849Z,3.30
2022-09-29T04:19:31.912Z,2.70
2022-09-29T04:21:59.910Z,2.80
2022-09-29T04:24:27.897Z,3.10
2022-09-29T04:26:55.904Z,2.90
2022-09-29T04:29:23.909Z,3.60
2022-09-29T04:31:52.033Z,3.40
2022-09-29T04:34:20.848Z,3.20
2022-09-29T04:36:48.922Z,3.00
2022-09-29T04:39:17.054Z,2.70
2022-09-29T04:41:46.290Z,2.80
2022-09-29T04:44:14.670Z,3.30
2022-09-29T04:46:42.676Z,3.10
2022-09-29T04:49:10.709Z,3.10
2022-09-29T04:51:38.783Z,2.80
2022-09-29T04:54:06.854Z,3.50
2022-09-29T04:56:35.026Z,3.10
2022-09-29T04:59:03.202Z,3.30
2022-09-29T05:01:31.682Z,3.10
2022-09-29T05:03:59.855Z,3.40
2022-09-29T05:06:28.700Z,3.20
2022-09-29T05:08:56.919Z,3.50
2022-09-29T05:11:24.990Z,3.40
2022-09-29T05:13:53.163Z,3.10
2022-09-29T05:16:21.311Z,2.80
2022-09-29T05:18:50.397Z,3.00
2022-09-29T05:21:33.720Z,3.10
2022-09-29T05:24:02.461Z,2.90
2022-09-29T05:26:30.625Z,2.60
2022-09-29T05:28:58.693Z,3.00
2022-09-29T05:31:26.910Z,2.70
2022-09-29T05:33:56.777Z,2.80
2022-09-29T05:36:25.545Z,2.70
2022-09-29T05:38:53.640Z,2.80
2022-09-29T05:41:24.686Z,2.50
2022-09-29T05:43:54.670Z,2.60
2022-09-29T05:46:23.709Z,3.00
2022-09-29T05:48:51.820Z,2.60
2022-09-29T05:51:23.369Z,2.50
2022-09-29T05:53:52.313Z,2.90
2022-09-29T05:56:23.759Z,3.20
2022-09-29T05:58:52.903Z,3.50
2022-09-29T06:01:24.865Z,3.80
2022-09-29T06:03:56.723Z,3.80
2022-09-29T06:06:27.309Z,3.60
2022-09-29T06:08:57.838Z,2.90
2022-09-29T06:11:28.777Z,2.40
2022-09-29T06:13:56.952Z,2.70
2022-09-29T06:16:27.811Z,2.20
2022-09-29T06:18:56.794Z,2.80
2022-09-29T06:21:27.412Z,2.50
2022-09-29T06:23:56.917Z,2.90
2022-09-29T06:26:26.832Z,2.30
2022-09-29T06:28:56.528Z,2.20
2022-09-29T06:31:27.151Z,2.50
2022-09-29T06:34:00.486Z,2.50
2022-09-29T06:36:46.872Z,2.30
2022-09-29T06:39:17.297Z,2.40
2022-09-29T06:41:52.429Z,2.70
2022-09-29T06:44:22.362Z,2.10
2022-09-29T06:46:51.449Z,2.10
2022-09-29T06:49:20.876Z,2.80
2022-09-29T06:51:49.425Z,2.30
2022-09-29T06:54:20.661Z,3.00
2022-09-29T06:56:53.655Z,2.90
2022-09-29T06:59:21.875Z,3.20
2022-09-29T07:01:51.143Z,3.60
2022-09-29T07:04:22.120Z,3.30
2022-09-29T07:06:50.947Z,3.00
2022-09-29T07:09:19.548Z,3.10
2022-09-29T07:11:51.016Z,3.20
2022-09-29T07:14:22.905Z,3.40
2022-09-29T07:16:52.708Z,3.00
2022-09-29T07:19:22.607Z,3.30
2022-09-29T07:21:52.005Z,3.90
2022-09-29T07:24:20.157Z,4.70
2022-09-29T07:26:48.229Z,4.60
2022-09-29T07:29:17.026Z,5.10
2022-09-29T07:31:52.620Z,4.80
2022-09-29T07:34:23.094Z,3.90
2022-09-29T07:36:51.373Z,4.40
2022-09-29T07:39:22.310Z,4.20
2022-09-29T07:41:52.227Z,4.50
2022-09-29T07:44:20.761Z,4.20
2022-09-29T07:46:50.041Z,4.60
2022-09-29T07:49:19.234Z,4.20
2022-09-29T07:51:48.296Z,4.40
2022-09-29T07:54:16.460Z,4.30
2022-09-29T07:56:44.746Z,4.80
2022-09-29T07:59:13.023Z,4.20
2022-09-29T08:01:41.196Z,4.50
2022-09-29T08:04:09.474Z,5.10
2022-09-29T08:06:37.645Z,4.40
2022-09-29T08:09:05.755Z,4.80
2022-09-29T08:11:39.014Z,5.10
2022-09-29T08:14:08.618Z,4.70
2022-09-29T08:16:38.103Z,4.40
2022-09-29T08:19:07.578Z,5.00
2022-09-29T08:21:37.471Z,4.50
2022-09-29T08:24:07.152Z,4.90
2022-09-29T08:26:43.465Z,5.10
2022-09-29T08:29:16.834Z,5.30
2022-09-29T08:31:46.614Z,4.50
2022-09-29T08:34:16.233Z,4.00
2022-09-29T08:36:44.931Z,4.50
2022-09-29T08:39:13.301Z,7.80
2022-09-29T08:41:54.893Z,5.30
2022-09-29T08:44:38.352Z,5.50
2022-09-29T08:47:15.574Z,5.30
2022-09-29T08:49:54.032Z,4.70
2022-09-29T08:52:28.717Z,4.50
2022-09-29T08:55:21.029Z,5.10
2022-09-29T08:57:59.189Z,5.40
2022-09-29T09:00:45.962Z,5.20
2022-09-29T09:04:02.099Z,4.70
2022-09-29T09:07:07.749Z,5.10
2022-09-29T09:10:06.951Z,5.00
2022-09-29T09:13:05.946Z,8.50
2022-09-29T09:16:00.642Z,5.20
2022-09-29T09:18:31.580Z,9.20
2022-09-29T09:21:13.271Z,6.30
2022-09-29T09:23:59.875Z,5.80
2022-09-29T09:26:43.208Z,7.10
2022-09-29T09:29:26.018Z,7.40
2022-09-29T09:32:03.719Z,5.30
2022-09-29T09:34:45.419Z,7.80
2022-09-29T09:39:48.156Z,6.00
2022-09-29T09:42:22.439Z,6.10
2022-09-29T09:45:00.791Z,5.20
2022-09-29T09:47:36.386Z,6.20
2022-09-29T09:50:15.536Z,4.80
2022-09-29T09:52:56.080Z,4.40
2022-09-29T09:55:26.711Z,4.50
2022-09-29T09:58:34.924Z,4.40
2022-09-29T10:01:07.386Z,5.00
2022-09-29T10:03:37.425Z,27.30
2022-09-29T10:06:09.585Z,7.20
2022-09-29T10:08:42.391Z,3.80
2022-09-29T10:11:27.218Z,4.30
2022-09-29T10:14:01.448Z,4.30
2022-09-29T10:16:49.381Z,4.30
2022-09-29T10:19:44.485Z,4.90
2022-09-29T10:22:15.059Z,4.20
2022-09-29T10:24:43.190Z,4.30
2022-09-29T10:27:17.917Z,4.80
2022-09-29T10:29:51.108Z,4.50
2022-09-29T10:32:37.713Z,4.90
2022-09-29T10:35:09.268Z,4.80
2022-09-29T10:37:41.741Z,4.90
2022-09-29T10:40:13.302Z,4.60
2022-09-29T10:42:48.644Z,3.90
2022-09-29T10:45:18.651Z,4.50
2022-09-29T10:47:58.706Z,4.80
2022-09-29T10:50:51.601Z,4.00
2022-09-29T10:53:34.988Z,3.70
2022-09-29T10:56:25.486Z,3.90
2022-09-29T10:59:01.894Z,3.50
2022-09-29T11:01:45.488Z,3.60
2022-09-29T11:04:24.822Z,3.90
2022-09-29T11:06:54.353Z,3.80
2022-09-29T11:09:22.470Z,4.10
2022-09-29T11:12:00.406Z,3.70
2022-09-29T11:14:38.204Z,5.10
2022-09-29T11:17:23.895Z,6.90
2022-09-29T11:19:54.109Z,7.00
2022-09-29T11:22:44.096Z,5.10
2022-09-29T11:25:43.996Z,2.70
2022-09-29T11:28:30.514Z,2.60
2022-09-29T11:31:10.363Z,3.20
2022-09-29T11:33:58.403Z,2.30
2022-09-29T11:36:38.660Z,2.20
2022-09-29T11:39:32.639Z,2.50
2022-09-29T11:42:25.082Z,2.50
2022-09-29T11:45:01.739Z,3.40
2022-09-29T11:47:54.093Z,2.90
2022-09-29T11:50:42.849Z,3.10
2022-09-29T11:53:28.636Z,3.30
2022-09-29T11:56:02.750Z,3.20
2022-09-29T11:58:54.373Z,3.60
2022-09-29T12:02:05.700Z,3.50
2022-09-29T12:04:48.884Z,3.20
2022-09-29T12:07:37.435Z,3.00
2022-09-29T12:10:07.862Z,3.30
2022-09-29T12:12:45.486Z,3.10
2022-09-29T12:15:27.559Z,3.00
2022-09-29T12:18:02.693Z,3.80
2022-09-29T12:20:38.139Z,3.70
2022-09-29T12:23:13.073Z,4.20
2022-09-29T12:25:56.706Z,3.80
2022-09-29T12:28:32.252Z,3.20
2022-09-29T12:31:27.665Z,3.20
2022-09-29T12:34:20.719Z,3.70
2022-09-29T12:36:53.922Z,3.70
2022-09-29T12:39:41.033Z,3.70
2022-09-29T12:42:21.493Z,4.20
2022-09-29T12:45:14.653Z,3.90
2022-09-29T12:47:45.796Z,4.30
2022-09-29T12:50:19.500Z,4.10
2022-09-29T12:52:55.897Z,4.10
2022-09-29T12:55:48.410Z,4.60
2022-09-29T12:58:40.545Z,4.60
2022-09-29T13:04:06.692Z,4.20
2022-09-29T13:07:07.738Z,4.20
2022-09-29T13:10:06.835Z,3.70
2022-09-29T13:13:05.729Z,4.80
2022-09-29T13:15:46.743Z,4.30
2022-09-29T13:18:26.858Z,4.50
2022-09-29T13:21:29.847Z,4.80
2022-09-29T13:24:28.537Z,4.90
2022-09-29T13:27:31.425Z,4.40
2022-09-29T13:30:11.681Z,4.30
2022-09-29T13:32:45.179Z,4.00
2022-09-29T13:35:18.382Z,5.50
2022-09-29T13:37:51.562Z,5.40
2022-09-29T13:40:26.085Z,4.60
2022-09-29T13:42:59.460Z,7.90
2022-09-29T13:45:31.500Z,6.90
2022-09-29T13:48:02.246Z,5.70
2022-09-29T13:50:51.240Z,7.20
2022-09-29T13:53:19.211Z,8.50
2022-09-29T13:55:57.009Z,7.70
2022-09-29T13:58:27.846Z,5.80
2022-09-29T14:01:00.419Z,5.40
2022-09-29T14:03:29.620Z,5.60
2022-09-29T14:06:41.677Z,5.90
2022-09-29T14:11:51.692Z,8.40
2022-09-29T14:14:27.023Z,12.50
2022-09-29T14:17:02.076Z,5.80
2022-09-29T14:19:51.335Z,8.40
2022-09-29T14:22:31.183Z,7.80
2022-09-29T14:25:08.068Z,6.80
2022-09-29T14:28:01.835Z,5.50
2022-09-29T14:30:33.472Z,5.40
2022-09-29T14:33:06.988Z,5.10
2022-09-29T14:35:43.968Z,5.20
2022-09-29T14:38:31.701Z,4.30
2022-09-29T14:41:07.451Z,4.10
2022-09-29T14:43:43.204Z,4.60
2022-09-29T14:47:04.113Z,4.60
2022-09-29T14:50:33.319Z,4.30
2022-09-29T14:53:23.612Z,4.40
2022-09-29T14:56:29.264Z,4.10
2022-09-29T14:59:42.698Z,4.50
2022-09-29T15:02:22.295Z,4.40
2022-09-29T15:04:50.517Z,4.10
2022-09-29T15:07:28.723Z,4.10
2022-09-29T15:09:59.563Z,5.20
2022-09-29T15:12:33.495Z,5.40
2022-09-29T15:15:02.664Z,4.20
2022-09-29T15:17:54.967Z,4.50
2022-09-29T15:20:52.466Z,5.00
2022-09-29T15:23:39.685Z,6.20
2022-09-29T15:26:14.381Z,6.20
2022-09-29T15:28:44.205Z,6.10
2022-09-29T15:31:19.055Z,6.40
2022-09-29T15:33:48.667Z,5.70
2022-09-29T15:36:23.574Z,6.00
2022-09-29T15:39:04.772Z,5.90
2022-09-29T15:41:34.995Z,6.20
2022-09-29T15:44:18.589Z,5.90
2022-09-29T15:46:56.429Z,6.70
2022-09-29T15:49:31.055Z,8.10
2022-09-29T15:52:19.093Z,7.90
2022-09-29T15:54:59.162Z,8.30
2022-09-29T15:57:44.016Z,13.70
2022-09-29T16:01:37.775Z,14.20
2022-09-29T16:04:37.611Z,10.40
2022-09-29T16:07:06.293Z,9.80
2022-09-29T16:09:36.447Z,10.30
2022-09-29T16:12:07.742Z,10.10
2022-09-29T16:14:35.934Z,10.50
2022-09-29T16:17:04.213Z,9.80
2022-09-29T16:19:33.921Z,10.60
2022-09-29T16:22:07.118Z,13.10
2022-09-29T16:24:51.978Z,18.50
2022-09-29T16:34:55.652Z,15.90
2022-09-29T16:37:27.102Z,18.20
2022-09-29T16:39:56.176Z,15.40
2022-09-29T16:42:27.284Z,19.80
2022-09-29T16:44:56.949Z,13.20
2022-09-29T16:47:31.961Z,31.30
2022-09-29T16:50:05.257Z,55.50
2022-09-29T16:52:48.482Z,35.60
2022-09-29T16:55:28.095Z,16.80
2022-09-29T16:58:03.366Z,13.40
2022-09-29T17:00:33.083Z,22.10
2022-09-29T17:03:05.882Z,12.30
2022-09-29T17:05:43.861Z,14.40
2022-09-29T17:08:25.521Z,14.80
2022-09-29T17:10:57.063Z,17.70
2022-09-29T17:13:32.855Z,15.20
2022-09-29T17:16:04.786Z,13.30
2022-09-29T17:18:33.195Z,15.40
2022-09-29T17:21:01.778Z,17.90
2022-09-29T17:23:30.363Z,22.40
2022-09-29T17:26:19.937Z,21.40
2022-09-29T17:28:48.424Z,21.40
2022-09-29T17:31:16.838Z,24.70
2022-09-29T17:33:45.790Z,24.40
2022-09-29T17:36:14.885Z,25.00
2022-09-29T17:38:42.956Z,23.50
2022-09-29T17:41:16.557Z,23.80
2022-09-29T17:43:48.214Z,23.00
2022-09-29T17:46:16.992Z,23.60
2022-09-29T17:48:45.379Z,23.50
2022-09-29T17:51:16.654Z,21.50
2022-09-29T17:53:45.487Z,18.30
2022-09-29T17:56:22.292Z,17.80
2022-09-29T17:58:51.079Z,19.80
2022-09-29T18:01:21.766Z,20.10
2022-09-29T18:03:51.987Z,23.50
2022-09-29T18:06:25.443Z,26.10
2022-09-29T18:08:57.652Z,26.10
2022-09-29T18:11:28.504Z,23.70
2022-09-29T18:13:58.151Z,16.60
2022-09-29T18:16:28.917Z,15.10
2022-09-29T18:19:01.565Z,13.20
2022-09-29T18:21:34.236Z,11.60
2022-09-29T18:24:10.562Z,9.60
2022-09-29T18:26:45.764Z,9.50
2022-09-29T18:29:20.015Z,9.40
2022-09-29T18:31:50.530Z,9.00
2022-09-29T18:34:23.628Z,11.20
2022-09-29T18:36:52.703Z,10.30
2022-09-29T18:39:21.879Z,10.50
2022-09-29T18:41:51.679Z,11.70
2022-09-29T18:44:29.784Z,10.10
2022-09-29T18:47:00.305Z,10.60
2022-09-29T18:49:30.143Z,10.60
2022-09-29T18:52:01.454Z,11.80
2022-09-29T18:56:59.669Z,24.50
2022-09-29T18:59:28.965Z,24.60
2022-09-29T19:01:58.185Z,21.80
2022-09-29T19:04:27.773Z,19.20
2022-09-29T19:06:57.736Z,17.30
2022-09-29T19:09:27.961Z,13.70
2022-09-29T19:11:57.495Z,12.30
2022-09-29T19:14:27.640Z,12.40
2022-09-29T19:16:56.523Z,10.60
2022-09-29T19:19:25.618Z,10.70
2022-09-29T19:21:56.047Z,12.20
2022-09-29T19:24:25.263Z,12.20
2022-09-29T19:26:54.441Z,12.90
2022-09-29T19:29:24.055Z,15.20
2022-09-29T19:31:53.861Z,15.10
2022-09-29T19:34:24.146Z,16.20
2022-09-29T19:36:54.201Z,14.50
2022-09-29T19:39:25.505Z,13.30
2022-09-29T19:41:53.723Z,13.20
2022-09-29T19:44:23.027Z,17.80
2022-09-29T19:46:53.573Z,17.40
2022-09-29T19:49:29.466Z,18.00
2022-09-29T19:52:05.102Z,17.20
2022-09-29T19:54:38.744Z,17.70
2022-09-29T19:57:16.202Z,18.30
2022-09-29T19:59:45.061Z,18.30
2022-09-29T20:02:15.896Z,15.20
2022-09-29T20:04:44.944Z,32.40
2022-09-29T20:07:14.787Z,25.20
2022-09-29T20:09:44.353Z,25.00
2022-09-29T20:12:18.547Z,25.20
2022-09-29T20:14:50.667Z,23.30
2022-09-29T20:17:20.420Z,20.40
2022-09-29T20:19:50.506Z,18.70
2022-09-29T20:22:20.494Z,22.50
2022-09-29T20:24:49.419Z,23.20
2022-09-29T20:27:19.906Z,24.10
2022-09-29T20:29:48.725Z,18.60
2022-09-29T20:32:20.230Z,15.20
2022-09-29T20:34:48.656Z,15.00
2022-09-29T20:37:18.571Z,15.80
2022-09-29T20:39:51.539Z,14.00
2022-09-29T20:42:21.784Z,13.90
2022-09-29T20:44:56.425Z,13.90
2022-09-29T20:47:26.699Z,12.40
2022-09-29T20:49:59.808Z,12.10
2022-09-29T20:52:31.370Z,12.00
2022-09-29T20:55:03.304Z,12.10
2022-09-29T20:57:33.206Z,11.80
2022-09-29T21:00:03.027Z,12.40
2022-09-29T21:02:31.282Z,11.20
2022-09-29T21:04:59.511Z,11.90
2022-09-29T21:07:37.002Z,11.40
2022-09-29T21:10:06.529Z,11.80
2022-09-29T21:12:34.696Z,12.30
2022-09-29T21:15:03.693Z,12.00
2022-09-29T21:17:37.471Z,11.00
2022-09-29T21:20:11.413Z,12.80
2022-09-29T21:22:40.891Z,14.10
2022-09-29T21:25:09.696Z,13.10
2022-09-29T21:27:41.020Z,13.60
2022-09-29T21:32:39.219Z,15.40
2022-09-29T21:35:09.430Z,16.60
2022-09-29T21:37:38.125Z,15.40
2022-09-29T21:40:08.656Z,17.20
2022-09-29T21:42:37.606Z,18.40
2022-09-29T21:45:07.599Z,19.20
2022-09-29T21:47:54.668Z,19.50
2022-09-29T21:50:23.982Z,16.80
2022-09-29T21:52:52.869Z,16.10
2022-09-29T21:55:21.044Z,14.00
2022-09-29T21:57:59.340Z,13.90
2022-09-29T22:00:39.693Z,13.20
2022-09-29T22:03:11.371Z,13.70
2022-09-29T22:05:43.026Z,12.00
2022-09-29T22:10:40.810Z,12.80
2022-09-29T22:13:10.503Z,13.20
2022-09-29T22:15:38.763Z,11.40
2022-09-29T22:18:06.968Z,11.70
2022-09-29T22:20:39.238Z,11.70
2022-09-29T22:23:07.512Z,10.90
2022-09-29T22:25:35.789Z,11.90
2022-09-29T22:28:03.860Z,11.30
2022-09-29T22:30:32.444Z,10.90
2022-09-29T22:33:01.027Z,11.30
2022-09-29T22:35:34.611Z,11.20
2022-09-29T22:38:04.645Z,11.30
2022-09-29T22:40:33.232Z,11.50
2022-09-29T22:43:01.606Z,12.50
2022-09-29T22:45:29.986Z,13.10
2022-09-29T22:47:58.677Z,13.00
2022-09-29T22:50:31.606Z,13.20
2022-09-29T22:53:00.042Z,12.50
2022-09-29T22:55:30.261Z,13.40
2022-09-29T22:57:58.433Z,13.70
2022-09-29T23:00:26.709Z,13.30
2022-09-29T23:02:54.749Z,13.50
2022-09-29T23:05:22.749Z,13.20
2022-09-29T23:07:51.433Z,13.60
2022-09-29T23:10:19.506Z,13.40
2022-09-29T23:12:48.006Z,15.00
2022-09-29T23:15:16.177Z,13.70
2022-09-29T23:17:44.334Z,13.40
2022-09-29T23:20:12.611Z,14.20
2022-09-29T23:22:40.698Z,14.10
2022-09-29T23:25:09.321Z,14.60
2022-09-29T23:27:37.847Z,14.00
2022-09-29T23:30:06.818Z,14.30
2022-09-29T23:32:35.788Z,13.70
2022-09-29T23:35:05.772Z,14.00
2022-09-29T23:37:53.789Z,14.50
2022-09-29T23:40:22.065Z,13.40
2022-09-29T23:42:52.279Z,13.40
2022-09-29T23:45:20.783Z,12.40
2022-09-29T23:47:51.381Z,12.50
2022-09-29T23:50:20.163Z,12.70
2022-09-29T23:52:48.832Z,13.30
2022-09-29T23:55:17.149Z,13.90
2022-09-29T23:57:45.219Z,14.50
